createdAt,value
2024-01-08T00:00:54.184Z,95709.47
2024-01-08T00:03:21.004Z,95719.09
2024-01-08T00:05:48.166Z,95710.59
2024-01-08T00:08:15.983Z,95716.16
2024-01-08T00:10:42.778Z,95717.78
2024-01-08T00:13:10.815Z,95719.44
2024-01-08T00:15:37.780Z,95722.06
2024-01-08T00:18:05.056Z,95720.56
2024-01-08T00:20:32.252Z,95713.53
2024-01-08T00:22:59.193Z,95724.84
2024-01-08T00:25:26.278Z,95724.69
2024-01-08T00:27:53.304Z,95731.84
2024-01-08T00:30:20.525Z,95732.84
2024-01-08T00:32:49.163Z,95743.44
2024-01-08T00:35:16.806Z,95746.44
2024-01-08T00:37:43.805Z,95740.88
2024-01-08T00:40:11.802Z,95748.28
2024-01-08T00:42:40.657Z,95743.03
2024-01-08T00:45:08.667Z,95734.31
2024-01-08T00:47:35.802Z,95749.19
2024-01-08T00:50:04.151Z,95756.41
2024-01-08T00:52:31.245Z,95748.84
2024-01-08T00:55:03.678Z,95747.88
2024-01-08T00:57:31.174Z,95748.69
2024-01-08T00:59:58.209Z,95755.09
2024-01-08T01:02:26.468Z,95760.31
2024-01-08T01:04:53.684Z,95762.94
2024-01-08T01:07:20.579Z,95761.13
2024-01-08T01:09:47.828Z,95756.22
2024-01-08T01:12:15.208Z,95762.09
2024-01-08T01:14:42.309Z,95762.25
2024-01-08T01:17:09.387Z,95763.06
2024-01-08T01:19:36.163Z,95769.13
2024-01-08T01:22:03.019Z,95770.78
2024-01-08T01:24:29.856Z,95767.50
2024-01-08T01:26:56.917Z,95766.50
2024-01-08T01:29:23.783Z,95768.81
2024-01-08T01:31:50.590Z,95767.31
2024-01-08T01:34:19.144Z,95756.53
2024-01-08T01:36:47.167Z,95767.19
2024-01-08T01:39:14.143Z,95761.97
2024-01-08T01:41:41.217Z,95764.38
2024-01-08T01:44:08.080Z,95762.56
2024-01-08T01:46:43.104Z,95767.16
2024-01-08T01:49:14.321Z,95771.41
2024-01-08T01:51:42.926Z,95767.00
2024-01-08T01:54:13.148Z,95770.13
2024-01-08T01:56:42.257Z,95766.50
2024-01-08T01:59:09.917Z,95767.50
2024-01-08T02:01:37.585Z,95763.06
2024-01-08T02:04:05.444Z,95765.91
2024-01-08T02:06:32.185Z,95767.03
2024-01-08T02:08:59.089Z,95761.91
2024-01-08T02:11:26.032Z,95766.66
2024-01-08T02:13:52.908Z,95771.88
2024-01-08T02:16:19.912Z,95766.47
2024-01-08T02:18:47.358Z,95769.78
2024-01-08T02:21:14.173Z,95765.84
2024-01-08T02:23:41.018Z,95767.59
2024-01-08T02:26:08.618Z,95768.44
2024-01-08T02:28:35.466Z,95773.69
2024-01-08T02:31:02.267Z,95774.00
2024-01-08T02:33:29.158Z,95777.13
2024-01-08T02:35:56.268Z,95775.31
2024-01-08T02:38:23.356Z,95782.19
2024-01-08T02:40:50.266Z,95780.56
2024-01-08T02:43:17.149Z,95785.13
2024-01-08T02:45:43.882Z,95786.78
2024-01-08T02:48:11.181Z,95794.94
2024-01-08T02:50:38.092Z,95793.78
2024-01-08T02:53:05.604Z,95794.47
2024-01-08T02:55:32.505Z,95794.63
2024-01-08T02:57:59.256Z,95794.13
2024-01-08T03:00:26.153Z,95794.13
2024-01-08T03:02:53.228Z,95792.47
2024-01-08T03:05:19.988Z,95804.06
2024-01-08T03:07:46.785Z,95809.31
2024-01-08T03:10:13.490Z,95802.13
2024-01-08T03:12:40.336Z,95805.09
2024-01-08T03:15:07.639Z,95804.13
2024-01-08T03:17:35.738Z,95812.63
2024-01-08T03:20:04.321Z,95801.50
2024-01-08T03:22:31.099Z,95812.28
2024-01-08T03:24:58.085Z,95813.41
2024-01-08T03:27:24.870Z,95809.31
2024-01-08T03:29:51.873Z,95817.81
2024-01-08T03:32:19.002Z,95813.91
2024-01-08T03:34:47.647Z,95819.16
2024-01-08T03:37:14.410Z,95816.19
2024-01-08T03:39:41.296Z,95819.63
2024-01-08T03:42:08.226Z,95829.41
2024-01-08T03:44:35.012Z,95830.25
2024-01-08T03:47:01.996Z,95834.34
2024-01-08T03:49:28.751Z,95833.38
2024-01-08T03:51:55.523Z,95843.00
2024-01-08T03:54:22.421Z,95841.75
2024-01-08T03:56:49.437Z,95847.63
2024-01-08T03:59:16.672Z,95846.22
2024-01-08T04:01:45.630Z,95850.78
2024-01-08T04:04:13.133Z,95856.22
2024-01-08T04:06:40.029Z,95857.50
2024-01-08T04:09:07.041Z,95864.53
2024-01-08T04:11:33.914Z,95862.56
2024-01-08T04:14:01.083Z,95863.41
2024-01-08T04:16:27.869Z,95869.78
2024-01-08T04:18:54.836Z,95861.94
2024-01-08T04:21:21.689Z,95868.13
2024-01-08T04:23:48.460Z,95875.97
2024-01-08T04:26:20.217Z,95880.19
2024-01-08T04:28:50.041Z,95880.34
2024-01-08T04:31:20.833Z,95889.38
2024-01-08T04:33:48.889Z,95886.91
2024-01-08T04:36:16.008Z,95886.09
2024-01-08T04:38:45.846Z,95899.34
2024-01-08T04:41:19.644Z,95902.91
2024-01-08T04:43:47.517Z,95896.06
2024-01-08T04:46:15.115Z,95909.44
2024-01-08T04:48:46.832Z,95913.03
2024-01-08T04:51:26.755Z,95917.06
2024-01-08T04:53:53.956Z,95927.53
2024-01-08T04:56:25.495Z,95936.53
2024-01-08T04:58:54.188Z,95932.56
2024-01-08T05:01:21.464Z,95941.63
2024-01-08T05:03:48.587Z,95937.50
2024-01-08T05:06:15.859Z,95944.16
2024-01-08T05:08:42.845Z,95938.13
2024-01-08T05:11:10.192Z,95946.41
2024-01-08T05:13:36.962Z,95948.34
2024-01-08T05:16:03.967Z,95959.94
2024-01-08T05:18:30.961Z,95955.00
2024-01-08T05:20:57.908Z,95963.25
2024-01-08T05:23:24.712Z,95957.25
2024-01-08T05:25:51.693Z,95965.03
2024-01-08T05:28:18.641Z,95968.50
2024-01-08T05:30:45.584Z,95975.00
2024-01-08T05:33:12.668Z,95974.78
2024-01-08T05:35:39.639Z,95978.38
2024-01-08T05:38:07.386Z,95986.88
2024-01-08T05:40:34.753Z,95992.97
2024-01-08T05:43:03.602Z,95988.66
2024-01-08T05:45:31.476Z,95997.22
2024-01-08T05:47:58.802Z,95996.50
2024-01-08T05:50:31.336Z,95996.50
2024-01-08T05:52:58.156Z,96003.47
2024-01-08T05:55:25.197Z,96003.50
2024-01-08T05:57:52.400Z,96010.13
2024-01-08T06:00:19.502Z,96020.34
2024-01-08T06:02:46.254Z,96028.38
2024-01-08T06:05:17.629Z,96027.28
2024-01-08T06:07:44.869Z,96033.34
2024-01-08T06:10:11.940Z,96034.75
2024-01-08T06:12:39.141Z,96047.16
2024-01-08T06:15:06.782Z,96054.59
2024-01-08T06:17:34.127Z,96052.09
2024-01-08T06:20:01.116Z,96057.06
2024-01-08T06:22:28.353Z,96058.84
2024-01-08T06:24:55.126Z,96060.06
2024-01-08T06:27:21.950Z,96065.56
2024-01-08T06:29:48.855Z,96068.34
2024-01-08T06:32:15.655Z,96077.69
2024-01-08T06:34:42.744Z,96075.22
2024-01-08T06:37:09.480Z,96076.72
2024-01-08T06:39:36.487Z,96083.44
2024-01-08T06:42:03.953Z,96088.66
2024-01-08T06:44:30.748Z,96096.22
2024-01-08T06:46:57.796Z,96098.03
2024-01-08T06:49:24.804Z,96104.72
2024-01-08T06:51:51.601Z,96107.91
2024-01-08T06:54:18.301Z,96118.91
2024-01-08T06:56:48.226Z,96120.41
2024-01-08T06:59:17.111Z,96119.72
2024-01-08T07:01:43.989Z,96121.66
2024-01-08T07:04:10.755Z,96134.56
2024-01-08T07:06:38.130Z,96139.78
2024-01-08T07:09:05.072Z,96141.72
2024-01-08T07:11:31.960Z,96138.00
2024-01-08T07:14:00.544Z,96142.25
2024-01-08T07:16:28.184Z,96149.13
2024-01-08T07:18:55.844Z,96149.53
2024-01-08T07:21:23.849Z,96160.13
2024-01-08T07:23:51.492Z,96163.16
2024-01-08T07:26:18.538Z,96169.19
2024-01-08T07:28:46.799Z,96174.13
2024-01-08T07:31:16.870Z,96179.91
2024-01-08T07:33:44.148Z,96186.63
2024-01-08T07:36:11.588Z,96185.56
2024-01-08T07:38:38.773Z,96191.59
2024-01-08T07:41:09.016Z,96197.13
2024-01-08T07:43:38.018Z,96198.91
2024-01-08T07:46:05.243Z,96214.84
2024-01-08T07:48:32.524Z,96221.69
2024-01-08T07:51:00.036Z,96226.91
2024-01-08T07:53:27.060Z,96227.44
2024-01-08T07:55:54.279Z,96227.72
2024-01-08T07:58:28.057Z,96231.97
2024-01-08T08:01:02.538Z,96234.97
2024-01-08T08:03:29.528Z,96233.91
2024-01-08T08:05:56.924Z,96240.09
2024-01-08T08:08:24.004Z,96245.31
2024-01-08T08:10:50.941Z,96251.50
2024-01-08T08:13:17.776Z,96258.09
2024-01-08T08:15:44.834Z,96266.72
2024-01-08T08:18:11.822Z,96269.16
2024-01-08T08:20:38.765Z,96277.00
2024-01-08T08:23:05.843Z,96284.00
2024-01-08T08:25:32.720Z,96289.22
2024-01-08T08:27:59.608Z,96293.88
2024-01-08T08:30:27.481Z,96297.72
2024-01-08T08:32:58.069Z,96308.84
2024-01-08T08:35:25.237Z,96310.78
2024-01-08T08:37:54.297Z,96319.03
2024-01-08T08:40:23.192Z,96318.34
2024-01-08T08:42:50.778Z,96317.38
2024-01-08T08:45:19.387Z,96323.16
2024-01-08T08:47:46.744Z,96327.09
2024-01-08T08:50:14.174Z,96335.91
2024-01-08T08:52:41.231Z,96334.50
2024-01-08T08:55:10.399Z,96336.38
2024-01-08T08:57:38.523Z,96339.63
2024-01-08T09:00:10.293Z,96348.09
2024-01-08T09:02:37.648Z,96347.78
2024-01-08T09:05:07.104Z,96356.34
2024-01-08T09:07:34.215Z,96354.25
2024-01-08T09:10:02.305Z,96362.19
2024-01-08T09:12:29.372Z,96363.28
2024-01-08T09:14:57.127Z,96375.03
2024-01-08T09:17:24.397Z,96370.56
2024-01-08T09:19:56.633Z,96369.75
2024-01-08T09:22:28.115Z,96379.59
2024-01-08T09:24:55.224Z,96387.66
2024-01-08T09:27:22.178Z,96382.56
2024-01-08T09:29:49.945Z,96386.97
2024-01-08T09:32:16.717Z,96394.00
2024-01-08T09:34:46.512Z,96401.34
2024-01-08T09:37:13.334Z,96402.28
2024-01-08T09:39:41.145Z,96411.06
2024-01-08T09:42:10.758Z,96413.91
2024-01-08T09:44:39.578Z,96407.06
2024-01-08T09:47:07.047Z,96416.03
2024-01-08T09:49:35.766Z,96417.13
2024-01-08T09:52:03.337Z,96423.63
2024-01-08T09:54:30.951Z,96425.03
2024-01-08T09:57:00.023Z,96422.41
2024-01-08T09:59:27.713Z,96424.09
2024-01-08T10:01:57.987Z,96427.00
2024-01-08T10:04:28.056Z,96428.56
2024-01-08T10:07:08.703Z,96440.41
2024-01-08T10:09:36.699Z,96439.00
2024-01-08T10:12:04.473Z,96456.78
2024-01-08T10:14:31.489Z,96446.44
2024-01-08T10:17:02.653Z,96455.69
2024-01-08T10:19:31.783Z,96464.22
2024-01-08T10:22:13.578Z,96463.75
2024-01-08T10:24:42.572Z,96470.75
2024-01-08T10:27:10.413Z,96475.00
2024-01-08T10:29:38.976Z,96469.81
2024-01-08T10:32:07.217Z,96478.31
2024-01-08T10:34:37.443Z,96474.81
2024-01-08T10:37:04.528Z,96486.88
2024-01-08T10:39:43.945Z,96486.41
2024-01-08T10:42:17.856Z,96488.66
2024-01-08T10:44:45.019Z,96493.13
2024-01-08T10:47:25.551Z,96486.50
2024-01-08T10:50:00.281Z,96491.34
2024-01-08T10:52:36.049Z,96492.75
2024-01-08T10:55:06.086Z,96491.09
2024-01-08T10:57:51.402Z,96499.06
2024-01-08T11:00:19.276Z,96500.94
2024-01-08T11:02:46.327Z,96495.84
2024-01-08T11:05:15.569Z,96501.28
2024-01-08T11:07:43.833Z,96502.69
2024-01-08T11:10:11.019Z,96506.03
2024-01-08T11:12:40.109Z,96506.59
2024-01-08T11:15:07.801Z,96502.44
2024-01-08T11:17:36.042Z,96504.06
2024-01-08T11:20:08.031Z,96511.31
2024-01-08T11:22:39.745Z,96510.88
2024-01-08T11:25:07.404Z,96511.22
2024-01-08T11:27:34.473Z,96511.69
2024-01-08T11:30:05.931Z,96520.72
2024-01-08T11:32:36.319Z,96516.44
2024-01-08T11:35:10.274Z,96525.78
2024-01-08T11:37:41.113Z,96522.34
2024-01-08T11:40:19.890Z,96521.91
2024-01-08T11:42:49.097Z,96526.28
2024-01-08T11:45:17.684Z,96521.69
2024-01-08T11:47:45.648Z,96529.25
2024-01-08T11:50:13.890Z,96532.81
2024-01-08T11:52:41.431Z,96536.13
2024-01-08T11:55:09.605Z,96540.53
2024-01-08T11:57:39.665Z,96540.16
2024-01-08T12:00:21.157Z,96542.88
2024-01-08T12:02:48.868Z,96548.94
2024-01-08T12:05:16.736Z,96551.28
2024-01-08T12:07:43.767Z,96561.72
2024-01-08T12:10:14.042Z,96561.47
2024-01-08T12:12:42.092Z,96565.63
2024-01-08T12:15:10.099Z,96566.69
2024-01-08T12:17:38.078Z,96572.56
2024-01-08T12:20:05.686Z,96570.53
2024-01-08T12:22:33.097Z,96566.66
2024-01-08T12:25:00.477Z,96580.00
2024-01-08T12:27:31.889Z,96586.28
2024-01-08T12:29:59.782Z,96592.31
2024-01-08T12:32:30.088Z,96589.81
2024-01-08T12:34:57.392Z,96587.91
2024-01-08T12:37:25.303Z,96589.66
2024-01-08T12:39:52.163Z,96595.34
2024-01-08T12:42:20.578Z,96595.47
2024-01-08T12:44:51.528Z,96600.47
2024-01-08T12:47:18.748Z,96601.84
2024-01-08T12:49:46.004Z,96605.13
2024-01-08T12:52:14.171Z,96605.47
2024-01-08T12:54:42.866Z,96612.44
2024-01-08T12:57:12.491Z,96616.34
2024-01-08T12:59:52.524Z,96617.09
2024-01-08T13:02:25.221Z,96621.56
2024-01-08T13:04:55.305Z,96621.66
2024-01-08T13:07:22.079Z,96628.09
2024-01-08T13:09:49.668Z,96633.22
2024-01-08T13:12:16.658Z,96632.69
2024-01-08T13:14:43.581Z,96633.16
2024-01-08T13:17:13.711Z,96641.72
2024-01-08T13:19:41.207Z,96639.69
2024-01-08T13:22:08.907Z,96646.75
2024-01-08T13:24:36.326Z,96651.53
2024-01-08T13:27:03.326Z,96654.88
2024-01-08T13:29:30.291Z,96655.72
2024-01-08T13:31:57.053Z,96666.13
2024-01-08T13:34:23.945Z,96660.09
2024-01-08T13:36:51.272Z,96676.03
2024-01-08T13:39:18.312Z,96678.81
2024-01-08T13:41:48.350Z,96687.03
2024-01-08T13:44:15.878Z,96684.66
2024-01-08T13:46:42.862Z,96688.19
2024-01-08T13:49:09.758Z,96698.59
2024-01-08T13:51:36.654Z,96689.03
2024-01-08T13:54:06.715Z,96701.69
2024-01-08T13:56:34.736Z,96706.06
2024-01-08T13:59:01.971Z,96709.00
2024-01-08T14:01:28.886Z,96707.13
2024-01-08T14:03:55.998Z,96715.22
2024-01-08T14:06:23.020Z,96721.38
2024-01-08T14:08:49.984Z,96717.31
2024-01-08T14:11:17.032Z,96721.59
2024-01-08T14:13:43.745Z,96728.94
2024-01-08T14:16:10.505Z,96728.56
2024-01-08T14:18:37.652Z,96724.19
2024-01-08T14:21:07.970Z,96726.59
2024-01-08T14:23:34.808Z,96737.38
2024-01-08T14:26:03.552Z,96737.06
2024-01-08T14:28:30.550Z,96726.03
2024-01-08T14:30:58.097Z,96726.88
2024-01-08T14:33:25.762Z,96734.75
2024-01-08T14:35:53.542Z,96735.59
2024-01-08T14:38:21.860Z,96742.47
2024-01-08T14:40:50.239Z,96744.34
2024-01-08T14:43:18.493Z,96751.19
2024-01-08T14:45:46.241Z,96753.91
2024-01-08T14:48:14.474Z,96753.28
2024-01-08T14:50:42.792Z,96762.66
2024-01-08T14:53:09.726Z,96766.78
2024-01-08T14:55:36.516Z,96770.34
2024-01-08T14:58:03.500Z,96769.31
2024-01-08T15:00:30.422Z,96776.69
2024-01-08T15:02:57.406Z,96779.81
2024-01-08T15:05:25.179Z,96785.66
2024-01-08T15:07:53.418Z,96797.19
2024-01-08T15:10:20.455Z,96798.84
2024-01-08T15:12:48.042Z,96800.94
2024-01-08T15:15:14.953Z,96806.56
2024-01-08T15:17:42.046Z,96820.47
2024-01-08T15:20:10.069Z,96816.66
2024-01-08T15:22:37.033Z,96821.66
2024-01-08T15:25:03.977Z,96824.84
2024-01-08T15:27:30.956Z,96827.13
2024-01-08T15:29:58.029Z,96830.78
2024-01-08T15:32:26.264Z,96845.84
2024-01-08T15:34:53.208Z,96848.56
2024-01-08T15:37:20.411Z,96844.78
2024-01-08T15:39:47.541Z,96845.41
2024-01-08T15:42:14.562Z,96857.66
2024-01-08T15:44:41.748Z,96856.41
2024-01-08T15:47:09.940Z,96863.47
2024-01-08T15:49:36.845Z,96865.34
2024-01-08T15:52:04.322Z,96872.22
2024-01-08T15:54:31.502Z,96870.34
2024-01-08T15:56:58.583Z,96869.50
2024-01-08T15:59:25.489Z,96877.19
2024-01-08T16:01:52.453Z,96884.78
2024-01-08T16:04:19.475Z,96883.44
2024-01-08T16:06:50.100Z,96893.19
2024-01-08T16:09:18.928Z,96891.75
2024-01-08T16:11:46.128Z,96895.81
2024-01-08T16:14:13.218Z,96900.25
2024-01-08T16:16:42.721Z,96900.56
2024-01-08T16:19:09.730Z,96897.69
2024-01-08T16:21:36.888Z,96897.75
2024-01-08T16:24:10.524Z,96899.81
2024-01-08T16:26:41.223Z,96898.41
2024-01-08T16:29:08.990Z,96903.19
2024-01-08T16:31:36.254Z,96917.06
2024-01-08T16:34:03.200Z,96919.88
2024-01-08T16:36:31.588Z,96919.44
2024-01-08T16:38:59.069Z,96925.34
2024-01-08T16:41:25.916Z,96933.22
2024-01-08T16:43:54.107Z,96932.88
2024-01-08T16:46:20.755Z,96935.84
2024-01-08T16:48:47.767Z,96936.38
2024-01-08T16:51:15.936Z,96949.38
2024-01-08T16:53:42.730Z,96943.75
2024-01-08T16:56:09.767Z,96945.03
2024-01-08T16:58:37.261Z,96943.81
2024-01-08T17:01:07.659Z,96950.88
2024-01-08T17:03:34.589Z,96951.03
2024-01-08T17:06:03.830Z,96951.22
2024-01-08T17:08:32.422Z,96960.13
2024-01-08T17:10:59.585Z,96956.78
2024-01-08T17:13:26.439Z,96968.25
2024-01-08T17:15:54.032Z,96971.84
2024-01-08T17:18:23.643Z,96977.91
2024-01-08T17:20:51.395Z,96988.06
2024-01-08T17:23:18.667Z,96978.59
2024-01-08T17:25:45.733Z,96988.25
2024-01-08T17:28:12.823Z,96986.75
2024-01-08T17:30:40.133Z,96993.22
2024-01-08T17:33:07.645Z,96990.81
2024-01-08T17:35:54.692Z,97000.78
2024-01-08T17:38:21.621Z,97000.19
2024-01-08T17:40:48.428Z,97000.50
2024-01-08T17:43:15.536Z,96995.78
2024-01-08T17:45:42.350Z,96993.91
2024-01-08T17:48:09.543Z,97008.72
2024-01-08T17:50:36.531Z,97008.56
2024-01-08T17:53:03.667Z,97012.66
2024-01-08T17:55:30.737Z,97016.63
2024-01-08T17:57:57.531Z,97027.59
2024-01-08T18:00:26.227Z,97024.69
2024-01-08T18:02:53.054Z,97030.53
2024-01-08T18:05:25.960Z,97031.91
2024-01-08T18:08:04.611Z,97027.06
2024-01-08T18:10:45.363Z,97035.31
2024-01-08T18:13:17.599Z,97028.56
2024-01-08T18:15:47.142Z,97040.97
2024-01-08T18:18:29.993Z,97049.97
2024-01-08T18:21:02.981Z,97050.16
2024-01-08T18:23:35.053Z,97047.66
2024-01-08T18:26:24.084Z,97053.81
2024-01-08T18:29:22.432Z,97054.16
2024-01-08T18:31:51.452Z,97063.78
2024-01-08T18:34:46.069Z,97063.88
2024-01-08T18:37:12.939Z,97056.81
2024-01-08T18:39:54.031Z,97068.88
2024-01-08T18:42:41.418Z,97063.50
2024-01-08T18:45:22.467Z,97068.88
2024-01-08T18:48:24.529Z,97082.72
2024-01-08T18:51:00.719Z,97080.91
2024-01-08T18:53:34.060Z,97098.22
2024-01-08T18:56:03.236Z,97097.69
2024-01-08T18:58:41.485Z,97101.63
2024-01-08T19:01:16.524Z,97104.97
2024-01-08T19:04:11.722Z,97109.31
2024-01-08T19:06:47.777Z,97109.63
2024-01-08T19:09:16.740Z,97113.28
2024-01-08T19:12:04.079Z,97116.19
2024-01-08T19:14:39.525Z,97115.25
2024-01-08T19:17:45.363Z,97120.91
2024-01-08T19:20:46.030Z,97130.72
2024-01-08T19:23:35.425Z,97129.81
2024-01-08T19:26:11.170Z,97135.06
2024-01-08T19:28:43.583Z,97135.91
2024-01-08T19:31:14.148Z,97143.28
2024-01-08T19:33:46.650Z,97148.25
2024-01-08T19:36:15.661Z,97155.19
2024-01-08T19:38:44.827Z,97155.88
2024-01-08T19:41:15.393Z,97161.63
2024-01-08T19:43:44.665Z,97157.81
2024-01-08T19:49:21.385Z,97164.13
2024-01-08T19:52:02.267Z,97171.06
2024-01-08T19:54:30.626Z,97170.47
2024-01-08T19:56:59.764Z,97174.03
2024-01-08T19:59:28.044Z,97183.56
2024-01-08T20:02:00.362Z,97180.97
2024-01-08T20:04:30.976Z,97182.88
2024-01-08T20:07:02.995Z,97187.34
2024-01-08T20:09:31.835Z,97195.88
2024-01-08T20:12:03.228Z,97197.25
2024-01-08T20:14:37.091Z,97206.38
2024-01-08T20:17:27.590Z,97203.47
2024-01-08T20:19:53.826Z,97210.16
2024-01-08T20:22:26.154Z,97210.31
2024-01-08T20:24:55.098Z,97216.22
2024-01-08T20:27:23.819Z,97225.31
2024-01-08T20:29:52.741Z,97232.59
2024-01-08T20:32:23.097Z,97234.84
2024-01-08T20:34:51.582Z,97231.28
2024-01-08T20:37:25.618Z,97235.75
2024-01-08T20:39:57.389Z,97241.13
2024-01-08T20:42:26.973Z,97243.78
2024-01-08T20:44:58.422Z,97250.91
2024-01-08T20:47:27.771Z,97248.34
2024-01-08T20:49:56.450Z,97256.22
2024-01-08T20:52:27.241Z,97254.47
2024-01-08T20:54:56.729Z,97264.72
2024-01-08T20:57:33.530Z,97261.38
2024-01-08T21:00:07.666Z,97258.84
2024-01-08T21:02:38.942Z,97268.13
2024-01-08T21:05:28.643Z,97262.63
2024-01-08T21:07:59.660Z,97274.00
2024-01-08T21:10:29.510Z,97282.31
2024-01-08T21:12:59.066Z,97279.25
2024-01-08T21:15:27.560Z,97280.78
2024-01-08T21:18:00.947Z,97283.16
2024-01-08T21:20:29.947Z,97294.19
2024-01-08T21:23:01.254Z,97294.91
2024-01-08T21:25:29.821Z,97295.72
2024-01-08T21:27:58.063Z,97297.69
2024-01-08T21:30:32.156Z,97287.75
2024-01-08T21:33:29.719Z,97299.91
2024-01-08T21:35:57.936Z,97302.63
2024-01-08T21:38:26.158Z,97307.66
2024-01-08T21:41:00.531Z,97314.66
2024-01-08T21:43:28.512Z,97317.38
2024-01-08T21:46:01.208Z,97311.03
2024-01-08T21:48:52.694Z,97317.88
2024-01-08T21:51:20.971Z,97314.13
2024-01-08T21:53:47.918Z,97319.53
2024-01-08T21:56:14.905Z,97335.44
2024-01-08T21:58:41.726Z,97335.69
2024-01-08T22:01:09.915Z,97334.97
2024-01-08T22:03:36.939Z,97338.97
2024-01-08T22:06:06.766Z,97341.63
2024-01-08T22:08:36.648Z,97345.78
2024-01-08T22:11:03.615Z,97344.59
2024-01-08T22:13:30.534Z,97333.34
2024-01-08T22:15:57.527Z,97346.19
2024-01-08T22:18:25.140Z,97351.22
2024-01-08T22:20:51.980Z,97344.16
2024-01-08T22:23:19.010Z,97351.94
2024-01-08T22:25:48.956Z,97363.59
2024-01-08T22:28:16.142Z,97361.22
2024-01-08T22:30:43.046Z,97365.09
2024-01-08T22:33:10.314Z,97377.53
2024-01-08T22:35:37.147Z,97372.50
2024-01-08T22:38:04.179Z,97367.44
2024-01-08T22:40:31.029Z,97376.28
2024-01-08T22:42:57.740Z,97382.88
2024-01-08T22:45:25.157Z,97390.59
2024-01-08T22:47:51.956Z,97396.03
2024-01-08T22:50:19.307Z,97391.78
2024-01-08T22:52:46.152Z,97389.31
2024-01-08T22:55:13.061Z,97399.56
2024-01-08T22:57:40.122Z,97404.63
2024-01-08T23:00:09.257Z,97416.59
2024-01-08T23:02:39.152Z,97412.22
2024-01-08T23:05:07.457Z,97412.78
2024-01-08T23:07:34.345Z,97418.72
2024-01-08T23:10:01.107Z,97417.72
2024-01-08T23:12:27.837Z,97427.25
2024-01-08T23:14:55.824Z,97428.91
2024-01-08T23:17:22.725Z,97432.34
2024-01-08T23:19:49.498Z,97427.09
2024-01-08T23:22:16.480Z,97432.94
2024-01-08T23:24:43.450Z,97440.56
2024-01-08T23:27:10.388Z,97444.72
2024-01-08T23:29:37.574Z,97455.91
2024-01-08T23:32:05.043Z,97449.19
2024-01-08T23:34:32.238Z,97450.88
2024-01-08T23:36:59.117Z,97451.81
2024-01-08T23:39:25.938Z,97459.47
2024-01-08T23:41:52.762Z,97461.28
2024-01-08T23:44:19.721Z,97471.59
2024-01-08T23:46:46.625Z,97477.38
2024-01-08T23:49:13.733Z,97475.97
2024-01-08T23:51:40.849Z,97477.31
2024-01-08T23:54:07.855Z,97479.56
2024-01-08T23:56:35.004Z,97488.75
2024-01-08T23:59:02.038Z,97491.53
